Time;durP1;ratioP1;P1;durP2;ratioP2;P2;SDS_P1;SDS_P2;PMS_P1;PMS_P2;Temp;Humidity;BMP_temperature;BMP_pressure;BME280_temperature;BME280_humidity;BME280_pressure;Samples;Min_cycle;Max_cycle;Signal;HPM_P1;HPM_P2
2023/02/17 00:01:33;;;;;;;16.63;11.07;;;11.00;99.90;;;;;;5083800;28;20453;-83
2023/02/17 00:04:00;;;;;;;23.00;11.67;;;11.00;99.90;;;;;;5084566;28;20458;-83
2023/02/17 00:06:29;;;;;;;17.90;11.70;;;11.00;99.90;;;;;;5083804;28;20455;-84
2023/02/17 00:08:57;;;;;;;17.73;10.90;;;11.00;99.90;;;;;;5084332;28;20546;-83
2023/02/17 00:11:23;;;;;;;17.00;11.53;;;11.00;99.90;;;;;;5083376;28;20470;-83
2023/02/17 00:13:51;;;;;;;15.40;10.70;;;11.00;99.90;;;;;;5084383;28;20455;-82
2023/02/17 00:16:22;;;;;;;14.03;10.17;;;11.00;99.90;;;;;;5084360;28;20454;-83
2023/02/17 00:18:53;;;;;;;18.80;10.83;;;11.00;99.90;;;;;;5083436;28;20478;-85
2023/02/17 00:21:22;;;;;;;14.53;11.07;;;11.10;99.90;;;;;;5084502;28;20451;-83
2023/02/17 00:23:50;;;;;;;15.60;10.83;;;11.00;99.90;;;;;;5084388;28;20450;-85
2023/02/17 00:26:18;;;;;;;18.50;11.20;;;11.00;99.90;;;;;;5083878;28;20458;-82
2023/02/17 00:28:45;;;;;;;15.37;11.00;;;11.10;99.90;;;;;;5084479;28;20475;-83
2023/02/17 00:31:14;;;;;;;13.27;10.07;;;11.00;99.90;;;;;;5083463;28;20474;-83
2023/02/17 00:33:42;;;;;;;14.43;10.63;;;11.10;99.90;;;;;;5081841;28;20480;-83
2023/02/17 00:36:12;;;;;;;19.40;11.63;;;11.10;99.90;;;;;;5082586;28;20446;-83
2023/02/17 00:38:39;;;;;;;13.30;11.23;;;11.00;99.90;;;;;;5083483;28;20466;-83
2023/02/17 00:41:06;;;;;;;16.23;11.67;;;11.00;99.90;;;;;;5082955;28;20454;-86
2023/02/17 00:43:33;;;;;;;15.77;12.03;;;11.00;99.90;;;;;;5083600;28;20450;-83
2023/02/17 00:46:02;;;;;;;14.63;12.40;;;11.00;99.90;;;;;;5082404;28;20454;-86
2023/02/17 00:48:29;;;;;;;15.47;13.13;;;11.00;99.90;;;;;;5082206;28;20569;-83
2023/02/17 00:50:58;;;;;;;14.33;12.50;;;11.00;99.90;;;;;;5082866;28;20466;-82
2023/02/17 00:53:24;;;;;;;15.77;12.63;;;11.00;99.90;;;;;;5082905;28;20565;-86
2023/02/17 00:55:51;;;;;;;20.17;12.83;;;11.00;99.90;;;;;;5082241;28;20454;-83
2023/02/17 00:58:18;;;;;;;22.43;13.47;;;11.00;99.90;;;;;;5081798;28;20518;-83
2023/02/17 01:00:45;;;;;;;14.83;13.33;;;11.00;99.90;;;;;;5082110;28;20457;-87
2023/02/17 01:03:11;;;;;;;14.57;13.00;;;10.90;99.90;;;;;;5082388;28;20971;-83
2023/02/17 01:05:41;;;;;;;16.33;14.73;;;11.00;99.90;;;;;;5081701;28;20461;-83
2023/02/17 01:08:10;;;;;;;14.00;12.03;;;11.00;99.90;;;;;;5081757;28;20454;-81
2023/02/17 01:10:38;;;;;;;17.07;13.83;;;10.90;99.90;;;;;;5081790;28;20467;-83
2023/02/17 01:13:04;;;;;;;14.53;12.87;;;11.00;99.90;;;;;;5080970;28;20511;-83
2023/02/17 01:15:31;;;;;;;18.40;13.10;;;11.00;99.90;;;;;;5081186;28;20456;-82
2023/02/17 01:17:58;;;;;;;19.10;13.30;;;11.00;99.90;;;;;;5082123;28;20825;-83
2023/02/17 01:20:26;;;;;;;14.47;12.70;;;11.00;99.90;;;;;;5081938;28;20462;-83
2023/02/17 01:22:53;;;;;;;15.50;11.97;;;11.00;99.90;;;;;;5081982;28;20455;-83
2023/02/17 01:25:21;;;;;;;15.47;12.00;;;11.00;99.90;;;;;;5082323;28;20451;-83
2023/02/17 01:27:47;;;;;;;14.93;12.60;;;11.00;99.90;;;;;;5081490;28;20468;-84
2023/02/17 01:30:14;;;;;;;18.13;16.30;;;11.00;99.90;;;;;;5081887;28;20473;-83
2023/02/17 01:32:41;;;;;;;16.80;14.57;;;11.00;99.90;;;;;;5081795;28;20474;-81
2023/02/17 01:35:08;;;;;;;19.37;17.20;;;11.00;99.90;;;;;;5081876;28;20480;-83
2023/02/17 01:37:35;;;;;;;18.43;14.20;;;11.00;99.90;;;;;;5081804;28;20461;-83
2023/02/17 01:40:01;;;;;;;19.13;17.37;;;11.00;99.90;;;;;;5081366;28;20477;-83
2023/02/17 01:42:30;;;;;;;18.77;16.97;;;11.00;99.90;;;;;;5081753;28;20462;-83
2023/02/17 01:45:32;;;;;;;18.17;16.47;;;10.90;99.90;;;;;;5081120;28;20443;-84
2023/02/17 01:48:02;;;;;;;21.37;19.67;;;10.90;99.90;;;;;;5048789;28;20452;-83
2023/02/17 01:50:33;;;;;;;22.93;20.80;;;10.90;99.90;;;;;;5081405;28;20937;-83
2023/02/17 01:53:02;;;;;;;24.37;22.20;;;10.90;99.90;;;;;;5080516;28;20917;-83
2023/02/17 01:55:32;;;;;;;26.60;24.23;;;10.90;99.90;;;;;;5081121;28;20442;-84
2023/02/17 01:58:04;;;;;;;25.57;23.53;;;10.80;99.90;;;;;;5080958;28;20450;-84
2023/02/17 02:00:33;;;;;;;23.63;22.03;;;10.90;99.90;;;;;;5081342;28;20438;-83
2023/02/17 02:03:02;;;;;;;26.27;24.10;;;10.90;99.90;;;;;;5081721;28;20514;-86
2023/02/17 02:05:29;;;;;;;26.77;24.60;;;10.90;99.90;;;;;;5080989;28;20500;-83
2023/02/17 02:07:56;;;;;;;26.27;24.07;;;10.90;99.90;;;;;;5081302;28;20459;-83
2023/02/17 02:10:23;;;;;;;24.13;22.20;;;10.90;99.90;;;;;;5080679;28;20548;-83
2023/02/17 02:12:50;;;;;;;25.43;23.33;;;10.90;99.90;;;;;;5081519;28;20478;-82
2023/02/17 02:15:22;;;;;;;22.37;20.60;;;10.90;99.90;;;;;;5080538;28;20988;-82
2023/02/17 02:18:03;;;;;;;27.23;25.30;;;10.90;99.90;;;;;;5080705;28;20454;-82
2023/02/17 02:21:06;;;;;;;27.70;25.70;;;10.90;99.90;;;;;;5080559;28;20446;-85
2023/02/17 02:23:50;;;;;;;26.43;24.37;;;10.90;99.90;;;;;;5080248;28;20450;-82
2023/02/17 02:26:49;;;;;;;31.40;29.33;;;10.90;99.90;;;;;;5080895;28;20454;-83
2023/02/17 02:29:51;;;;;;;27.80;25.70;;;10.90;99.90;;;;;;5054275;28;20485;-83
2023/02/17 02:32:35;;;;;;;27.73;25.77;;;10.90;99.90;;;;;;5067547;28;20481;-84
2023/02/17 02:35:09;;;;;;;27.67;25.57;;;10.90;99.90;;;;;;5080355;28;20953;-83
2023/02/17 02:37:41;;;;;;;28.77;26.67;;;10.90;99.90;;;;;;5081080;28;20446;-83
2023/02/17 02:40:10;;;;;;;31.37;29.33;;;10.90;99.90;;;;;;5080393;28;20470;-83
2023/02/17 02:42:38;;;;;;;26.77;24.87;;;10.80;99.90;;;;;;5081036;28;20450;-82
2023/02/17 02:45:07;;;;;;;32.70;30.13;;;10.90;99.90;;;;;;5080368;28;20840;-82
2023/02/17 02:47:54;;;;;;;35.13;32.87;;;10.80;99.90;;;;;;5080215;28;20451;-81
2023/02/17 02:50:28;;;;;;;30.70;28.13;;;10.80;99.90;;;;;;5080093;28;20984;-82
2023/02/17 02:53:04;;;;;;;32.60;30.50;;;10.80;99.90;;;;;;5080763;28;20488;-82
2023/02/17 02:55:43;;;;;;;37.73;35.10;;;10.80;99.90;;;;;;5080517;28;20461;-82
2023/02/17 02:58:17;;;;;;;43.03;40.50;;;10.80;99.90;;;;;;5080405;28;20458;-82
2023/02/17 03:00:52;;;;;;;34.67;32.37;;;10.80;99.90;;;;;;5079896;28;20454;-83
2023/02/17 03:03:27;;;;;;;41.77;39.07;;;10.80;99.90;;;;;;5080524;28;20445;-83
2023/02/17 03:06:00;;;;;;;32.50;30.40;;;10.80;99.90;;;;;;5079028;28;20458;-82
2023/02/17 03:08:33;;;;;;;28.23;26.20;;;11.00;99.90;;;;;;5080108;28;20470;-82
2023/02/17 03:11:01;;;;;;;24.40;22.70;;;11.00;99.90;;;;;;5079069;28;20555;-82
2023/02/17 03:13:28;;;;;;;26.97;25.07;;;11.00;99.90;;;;;;5079828;28;20461;-82
2023/02/17 03:15:54;;;;;;;28.93;26.57;;;11.00;99.90;;;;;;5079126;28;20459;-83
2023/02/17 03:18:22;;;;;;;25.20;22.90;;;10.90;99.90;;;;;;5078284;28;20451;-82
2023/02/17 03:20:53;;;;;;;28.27;26.07;;;10.90;99.90;;;;;;5078799;28;20454;-82
2023/02/17 03:23:21;;;;;;;26.10;24.10;;;11.00;99.90;;;;;;5078733;28;20458;-82
2023/02/17 03:25:48;;;;;;;28.73;26.57;;;10.80;99.90;;;;;;5079259;28;20457;-83
2023/02/17 03:28:15;;;;;;;31.13;28.90;;;10.80;99.90;;;;;;5079854;28;20465;-82
2023/02/17 03:30:42;;;;;;;33.07;30.87;;;10.80;99.90;;;;;;5079432;28;20458;-82
2023/02/17 03:33:08;;;;;;;31.30;29.20;;;10.80;99.90;;;;;;5080139;28;20474;-83
2023/02/17 03:35:36;;;;;;;31.87;29.67;;;10.80;99.90;;;;;;5080386;28;20451;-82
2023/02/17 03:38:04;;;;;;;29.57;27.27;;;10.80;99.90;;;;;;5083823;28;20450;-82
2023/02/17 03:40:31;;;;;;;30.10;28.00;;;10.90;99.90;;;;;;5083370;28;20458;-83
2023/02/17 03:42:58;;;;;;;29.77;27.57;;;10.80;99.90;;;;;;5082462;28;20454;-83
2023/02/17 03:45:25;;;;;;;30.03;27.90;;;10.90;99.90;;;;;;5082040;28;20461;-82
2023/02/17 03:47:51;;;;;;;28.10;26.10;;;10.80;99.90;;;;;;5081881;28;20945;-82
2023/02/17 03:50:18;;;;;;;26.20;24.30;;;10.90;99.90;;;;;;5083563;28;20477;-82
2023/02/17 03:52:46;;;;;;;23.93;21.93;;;10.90;99.90;;;;;;5083358;28;20474;-81
2023/02/17 03:55:13;;;;;;;22.90;21.20;;;10.90;99.90;;;;;;5083660;28;20454;-82
2023/02/17 03:57:40;;;;;;;19.37;17.53;;;11.00;99.90;;;;;;5083170;28;20450;-82
2023/02/17 04:00:08;;;;;;;21.20;19.40;;;11.00;99.90;;;;;;5082181;28;20481;-83
2023/02/17 04:02:35;;;;;;;20.03;18.23;;;11.00;99.90;;;;;;5082986;28;20450;-82
2023/02/17 04:05:02;;;;;;;18.43;16.70;;;11.10;99.90;;;;;;5082873;28;20945;-83
2023/02/17 04:07:29;;;;;;;19.00;17.20;;;11.00;99.90;;;;;;5082496;28;20447;-82
2023/02/17 04:09:57;;;;;;;21.80;19.70;;;11.00;99.90;;;;;;5081871;28;20471;-82
2023/02/17 04:12:24;;;;;;;20.23;18.53;;;11.00;99.90;;;;;;5082290;28;20481;-81
2023/02/17 04:14:50;;;;;;;17.70;16.00;;;11.00;99.90;;;;;;5082674;28;20458;-82
2023/02/17 04:17:17;;;;;;;16.93;15.33;;;10.90;99.90;;;;;;5082261;28;20461;-82
2023/02/17 04:19:44;;;;;;;16.27;14.13;;;11.00;99.90;;;;;;5081457;28;20470;-83
2023/02/17 04:22:10;;;;;;;15.20;13.70;;;11.10;99.90;;;;;;5082748;28;20457;-82
2023/02/17 04:24:37;;;;;;;14.07;12.67;;;11.10;99.90;;;;;;5082009;28;20461;-82
2023/02/17 04:27:05;;;;;;;18.00;12.83;;;11.00;99.90;;;;;;5081907;28;20503;-82
2023/02/17 04:29:33;;;;;;;14.30;11.33;;;11.10;99.90;;;;;;5081882;28;20490;-82
2023/02/17 04:32:00;;;;;;;14.67;10.70;;;11.20;99.90;;;;;;5082406;28;20470;-82
2023/02/17 04:34:27;;;;;;;12.57;11.10;;;11.10;99.90;;;;;;5081476;28;20447;-80
2023/02/17 04:36:53;;;;;;;11.63;10.43;;;11.20;99.90;;;;;;5081882;28;20450;-82
2023/02/17 04:39:20;;;;;;;12.30;11.10;;;11.00;99.90;;;;;;5081248;28;20856;-82
2023/02/17 04:41:47;;;;;;;14.67;11.70;;;11.10;99.90;;;;;;5081997;28;20449;-82
2023/02/17 04:44:15;;;;;;;11.60;10.47;;;11.10;99.90;;;;;;5081476;28;20454;-83
2023/02/17 04:46:42;;;;;;;13.33;12.03;;;11.10;99.90;;;;;;5080868;28;20450;-82
2023/02/17 04:49:09;;;;;;;12.57;10.77;;;11.10;99.90;;;;;;5081416;28;20475;-83
2023/02/17 04:51:36;;;;;;;12.47;11.07;;;11.10;99.90;;;;;;5081138;28;20438;-83
2023/02/17 04:54:03;;;;;;;12.07;10.90;;;11.10;99.90;;;;;;5081802;28;20453;-81
2023/02/17 04:56:29;;;;;;;12.27;10.97;;;11.10;99.90;;;;;;5081584;28;20446;-83
2023/02/17 04:58:56;;;;;;;14.23;11.00;;;11.10;99.90;;;;;;5081547;28;21008;-82
2023/02/17 05:01:24;;;;;;;14.50;10.47;;;11.20;99.90;;;;;;5081398;28;20450;-83
2023/02/17 05:03:51;;;;;;;11.53;10.13;;;11.20;99.90;;;;;;5081456;28;20569;-82
2023/02/17 05:06:17;;;;;;;13.00;8.60;;;11.20;99.90;;;;;;5080009;28;20513;-82
2023/02/17 05:08:46;;;;;;;12.90;10.10;;;11.30;99.90;;;;;;5080981;28;20470;-82
2023/02/17 05:11:13;;;;;;;13.70;9.80;;;11.30;99.90;;;;;;5080769;28;20482;-81
2023/02/17 05:13:40;;;;;;;13.40;9.90;;;11.30;99.90;;;;;;5080840;28;20478;-83
2023/02/17 05:16:07;;;;;;;10.43;6.93;;;11.30;99.90;;;;;;5080471;28;20446;-83
2023/02/17 05:18:35;;;;;;;16.10;9.70;;;11.30;99.90;;;;;;5079622;28;20477;-82
2023/02/17 05:21:02;;;;;;;11.83;9.20;;;11.30;99.90;;;;;;5078984;28;20458;-83
2023/02/17 05:23:28;;;;;;;12.43;8.73;;;11.30;99.90;;;;;;5078915;28;20451;-82
2023/02/17 05:25:55;;;;;;;11.13;8.50;;;11.30;99.90;;;;;;5078476;28;20477;-82
2023/02/17 05:28:22;;;;;;;14.40;8.87;;;11.30;99.90;;;;;;5084885;28;20459;-82
2023/02/17 05:30:49;;;;;;;12.13;9.20;;;11.40;99.90;;;;;;5086031;28;20515;-82
2023/02/17 05:33:16;;;;;;;10.17;8.50;;;11.30;99.90;;;;;;5086305;28;20474;-82
2023/02/17 05:35:44;;;;;;;11.60;7.97;;;11.30;99.90;;;;;;5083587;28;20457;-82
2023/02/17 05:38:11;;;;;;;12.63;9.37;;;11.30;99.90;;;;;;5082939;28;20450;-82
2023/02/17 05:40:38;;;;;;;13.63;9.50;;;11.30;99.90;;;;;;5081909;28;20446;-82
2023/02/17 05:43:04;;;;;;;12.00;9.37;;;11.30;99.90;;;;;;5082986;28;20443;-82
2023/02/17 05:45:31;;;;;;;15.93;11.40;;;11.30;99.90;;;;;;5084048;28;20496;-82
2023/02/17 05:47:58;;;;;;;12.70;9.70;;;11.30;99.90;;;;;;5081788;28;20453;-83
2023/02/17 05:50:25;;;;;;;11.23;8.80;;;11.30;99.90;;;;;;5080822;28;20471;-82
2023/02/17 05:52:53;;;;;;;13.10;9.27;;;11.40;99.90;;;;;;5082607;28;20486;-82
2023/02/17 05:55:21;;;;;;;10.50;9.00;;;11.30;99.90;;;;;;5078770;28;20460;-83
2023/02/17 05:57:47;;;;;;;11.23;8.77;;;11.40;99.90;;;;;;5081871;28;20446;-82
2023/02/17 06:00:15;;;;;;;11.60;8.37;;;11.40;99.90;;;;;;5085457;28;20485;-83
2023/02/17 06:02:42;;;;;;;13.70;9.57;;;11.40;99.90;;;;;;5083922;28;20988;-82
2023/02/17 06:05:09;;;;;;;11.87;9.23;;;11.30;99.90;;;;;;5085127;28;20526;-82
2023/02/17 06:07:36;;;;;;;10.60;7.70;;;11.40;99.90;;;;;;5080800;28;20463;-83
2023/02/17 06:10:06;;;;;;;11.80;8.77;;;11.40;99.90;;;;;;5082030;28;20477;-83
2023/02/17 06:12:32;;;;;;;13.47;10.83;;;11.40;99.90;;;;;;5079697;28;20481;-82
2023/02/17 06:14:59;;;;;;;12.60;9.10;;;11.40;99.90;;;;;;5080003;28;20455;-83
2023/02/17 06:17:26;;;;;;;9.90;8.70;;;11.50;99.90;;;;;;5080111;28;20454;-81
2023/02/17 06:19:53;;;;;;;12.93;9.10;;;11.40;99.90;;;;;;5078808;28;21126;-82
2023/02/17 06:22:19;;;;;;;12.73;9.27;;;11.40;99.90;;;;;;5080289;28;20446;-82
2023/02/17 06:24:46;;;;;;;12.07;8.77;;;11.50;99.90;;;;;;5080278;28;20467;-81
2023/02/17 06:27:14;;;;;;;8.60;7.60;;;11.50;99.90;;;;;;5081003;28;20461;-82
2023/02/17 06:29:41;;;;;;;10.87;9.40;;;11.50;99.90;;;;;;5079763;28;20471;-82
2023/02/17 06:32:08;;;;;;;11.63;9.83;;;11.50;99.90;;;;;;5079563;28;20462;-82
2023/02/17 06:34:34;;;;;;;13.00;10.83;;;11.50;99.90;;;;;;5080614;28;20451;-82
2023/02/17 06:37:01;;;;;;;11.80;10.43;;;11.50;99.90;;;;;;5080532;28;20454;-81
2023/02/17 06:39:28;;;;;;;14.33;11.50;;;11.50;99.90;;;;;;5079930;28;20466;-81
2023/02/17 06:41:55;;;;;;;13.10;11.70;;;11.50;99.90;;;;;;5080089;28;20455;-81
2023/02/17 06:44:23;;;;;;;12.63;11.37;;;11.50;99.90;;;;;;5080142;28;20447;-81
2023/02/17 06:46:49;;;;;;;12.20;10.97;;;11.50;99.90;;;;;;5080092;28;20454;-81
2023/02/17 06:49:16;;;;;;;12.37;11.17;;;11.50;99.90;;;;;;5079737;28;20481;-82
2023/02/17 06:51:43;;;;;;;12.50;11.20;;;11.50;99.90;;;;;;5080491;28;20450;-82
2023/02/17 06:54:10;;;;;;;12.40;11.13;;;11.50;99.90;;;;;;5080202;28;20485;-82
2023/02/17 06:56:37;;;;;;;13.57;11.47;;;11.50;99.90;;;;;;5078876;28;20443;-81
2023/02/17 06:59:04;;;;;;;12.97;11.30;;;11.50;99.90;;;;;;5077963;28;20474;-81
2023/02/17 07:01:32;;;;;;;21.57;20.00;;;11.30;99.90;;;;;;5077716;28;20450;-81
2023/02/17 07:03:58;;;;;;;32.80;30.90;;;11.30;99.90;;;;;;5077167;28;20451;-81
2023/02/17 07:06:26;;;;;;;31.13;29.27;;;11.30;99.90;;;;;;5077727;28;20462;-81
2023/02/17 07:08:53;;;;;;;36.57;34.17;;;11.30;99.90;;;;;;5076320;28;20507;-80
2023/02/17 07:11:20;;;;;;;28.43;26.53;;;11.30;99.90;;;;;;5079695;28;20458;-79
2023/02/17 07:13:47;;;;;;;24.60;22.87;;;11.40;99.90;;;;;;5080776;28;20479;-80
2023/02/17 07:16:14;;;;;;;21.77;19.80;;;11.40;99.90;;;;;;5081369;28;20449;-81
2023/02/17 07:18:42;;;;;;;30.60;28.73;;;11.40;99.90;;;;;;5079905;28;20474;-79
2023/02/17 07:21:10;;;;;;;39.37;37.27;;;11.50;99.90;;;;;;5083102;28;20461;-80
2023/02/17 07:23:37;;;;;;;36.57;34.10;;;11.50;99.90;;;;;;5081810;28;20446;-80
2023/02/17 07:26:05;;;;;;;57.77;54.77;;;11.40;99.90;;;;;;5080758;28;20497;-80
2023/02/17 07:28:32;;;;;;;66.60;63.63;;;11.40;99.90;;;;;;5079575;28;20478;-80
2023/02/17 07:31:05;;;;;;;43.30;41.00;;;11.40;99.90;;;;;;5080308;28;20460;-80
2023/02/17 07:33:31;;;;;;;36.17;34.17;;;11.40;99.90;;;;;;5079734;28;20860;-80
2023/02/17 07:35:59;;;;;;;35.90;34.00;;;11.50;99.90;;;;;;5080938;28;20863;-81
2023/02/17 07:38:26;;;;;;;28.67;26.97;;;11.50;99.90;;;;;;5080574;28;20474;-80
2023/02/17 07:40:53;;;;;;;28.47;26.77;;;11.50;99.90;;;;;;5080615;28;20451;-80
2023/02/17 07:43:20;;;;;;;22.63;20.60;;;11.60;99.90;;;;;;5079949;28;20972;-80
2023/02/17 07:45:46;;;;;;;25.97;24.27;;;11.60;99.90;;;;;;5080415;28;20454;-80
2023/02/17 07:48:13;;;;;;;26.73;24.83;;;11.60;99.90;;;;;;5080152;28;20831;-79
2023/02/17 07:50:40;;;;;;;23.33;21.80;;;11.60;99.90;;;;;;5080848;28;20451;-80
2023/02/17 07:53:08;;;;;;;28.40;17.83;;;11.70;99.90;;;;;;5077617;28;20858;-80
2023/02/17 07:55:35;;;;;;;20.87;19.07;;;11.80;99.90;;;;;;5073126;28;20459;-81
2023/02/17 07:58:02;;;;;;;23.20;21.63;;;11.80;99.90;;;;;;5059933;28;20463;-80
2023/02/17 08:00:28;;;;;;;17.70;16.50;;;11.80;99.90;;;;;;5059903;28;20476;-81
2023/02/17 08:02:55;;;;;;;18.93;17.43;;;11.80;99.90;;;;;;5059402;28;20452;-81
2023/02/17 08:05:22;;;;;;;18.23;16.60;;;11.90;99.90;;;;;;5059628;28;20448;-82
2023/02/17 08:13:18;;;;;;;13.80;12.70;;;12.00;99.90;;;;;;5060351;28;20454;-82
2023/02/17 08:13:23;;;;;;;13.87;12.47;;;12.00;99.90;;;;;;5059241;28;20465;-80
2023/02/17 08:15:50;;;;;;;12.10;10.87;;;12.10;99.90;;;;;;5059158;28;20471;-80
2023/02/17 08:18:17;;;;;;;12.10;9.97;;;12.10;99.90;;;;;;5059207;28;20455;-80
2023/02/17 08:20:44;;;;;;;13.17;11.40;;;12.10;99.90;;;;;;5059971;28;20482;-81
2023/02/17 08:23:10;;;;;;;12.60;11.50;;;12.20;99.90;;;;;;5073518;28;20450;-81
2023/02/17 08:25:39;;;;;;;13.20;12.10;;;12.20;99.90;;;;;;5078866;28;20450;-81
2023/02/17 08:28:05;;;;;;;13.53;12.27;;;12.20;99.90;;;;;;5078981;28;20560;-81
2023/02/17 08:30:37;;;;;;;14.27;12.70;;;12.30;99.90;;;;;;5079983;28;20454;-81
2023/02/17 08:33:04;;;;;;;9.37;8.43;;;12.30;99.90;;;;;;5079723;28;20500;-81
2023/02/17 08:35:30;;;;;;;10.97;9.10;;;12.40;99.90;;;;;;5079913;28;20454;-82
2023/02/17 08:37:57;;;;;;;12.37;11.27;;;12.40;99.90;;;;;;5079811;28;20460;-82
2023/02/17 08:40:25;;;;;;;11.73;10.17;;;12.40;99.90;;;;;;5079419;28;21019;-82
2023/02/17 08:43:08;;;;;;;10.67;9.67;;;12.50;99.90;;;;;;5126127;22;20486;-85
2023/02/17 08:45:40;;;;;;;10.23;9.07;;;12.40;99.90;;;;;;5064178;28;20531;-85
2023/02/17 08:48:20;;;;;;;9.67;8.00;;;12.50;99.90;;;;;;5064279;28;20451;-85
2023/02/17 08:51:02;;;;;;;10.17;7.37;;;12.60;99.90;;;;;;5063504;28;20534;-85
2023/02/17 08:53:44;;;;;;;9.83;7.47;;;12.50;99.90;;;;;;5063953;28;21023;-85
2023/02/17 08:56:19;;;;;;;8.93;7.17;;;12.70;99.90;;;;;;5064426;28;20447;-85
2023/02/17 08:58:54;;;;;;;10.67;7.47;;;12.80;99.90;;;;;;5064702;28;20487;-85
2023/02/17 09:01:29;;;;;;;15.93;7.20;;;12.90;99.90;;;;;;5064750;28;20459;-85
2023/02/17 09:04:02;;;;;;;8.63;6.57;;;12.90;99.90;;;;;;5064592;28;20455;-85
2023/02/17 09:06:46;;;;;;;9.23;5.43;;;12.90;99.90;;;;;;5064438;28;20585;-85
2023/02/17 09:09:17;;;;;;;10.40;6.37;;;13.10;99.90;;;;;;5064731;28;20538;-85
2023/02/17 09:11:53;;;;;;;9.50;6.30;;;13.10;99.90;;;;;;5063988;28;20464;-84
2023/02/17 09:14:33;;;;;;;9.50;5.50;;;13.30;99.90;;;;;;5063524;28;20498;-85
2023/02/17 09:17:13;;;;;;;10.23;6.03;;;13.20;99.90;;;;;;5062990;28;20443;-85
2023/02/17 09:19:50;;;;;;;20.40;6.00;;;13.30;99.90;;;;;;5062837;28;20458;-84
2023/02/17 09:22:22;;;;;;;8.73;5.25;;;13.30;99.90;;;;;;5062112;28;20498;-85
2023/02/17 09:24:56;;;;;;;7.10;4.97;;;13.50;99.90;;;;;;5063380;28;20200;-84
2023/02/17 09:27:37;;;;;;;8.60;4.77;;;13.50;99.90;;;;;;5063355;28;20869;-85
2023/02/17 09:30:19;;;;;;;8.50;4.23;;;13.60;99.90;;;;;;5064084;28;20459;-85
2023/02/17 09:32:51;;;;;;;6.53;4.57;;;13.60;99.90;;;;;;5063066;28;20570;-85
2023/02/17 09:35:28;;;;;;;6.23;4.30;;;13.70;99.90;;;;;;5062903;28;20899;-85
2023/02/17 09:38:02;;;;;;;7.10;4.50;;;13.70;99.90;;;;;;5062112;28;20981;-84
2023/02/17 09:40:48;;;;;;;7.37;4.23;;;13.80;99.90;;;;;;5064090;28;20457;-85
2023/02/17 09:43:29;;;;;;;6.77;4.47;;;13.90;99.90;;;;;;5062945;28;20476;-84
2023/02/17 09:46:09;;;;;;;9.63;4.80;;;13.80;99.90;;;;;;5061478;28;20462;-85
2023/02/17 09:48:45;;;;;;;8.63;5.17;;;13.90;99.90;;;;;;5063373;28;20482;-85
2023/02/17 09:51:22;;;;;;;6.03;3.60;;;14.00;99.90;;;;;;5062600;28;20484;-85
2023/02/17 09:54:01;;;;;;;6.53;3.80;;;14.00;99.90;;;;;;5062443;28;20475;-85
2023/02/17 09:56:38;;;;;;;6.37;4.10;;;14.20;99.90;;;;;;5061943;28;20447;-85
2023/02/17 09:59:17;;;;;;;8.63;3.97;;;14.20;99.90;;;;;;5063888;28;20443;-85
2023/02/17 10:01:47;;;;;;;6.40;3.30;;;14.40;99.90;;;;;;5062204;28;20445;-85
2023/02/17 10:04:21;;;;;;;9.47;4.63;;;14.30;99.90;;;;;;5063651;28;20540;-85
2023/02/17 10:07:00;;;;;;;8.90;4.27;;;14.50;99.90;;;;;;5062416;28;20540;-84
2023/02/17 10:09:46;;;;;;;6.90;3.63;;;14.30;99.90;;;;;;5059692;28;20648;-84
2023/02/17 10:12:17;;;;;;;7.00;3.27;;;14.50;99.90;;;;;;5062058;28;20246;-85
2023/02/17 10:14:49;;;;;;;10.40;4.10;;;14.40;99.90;;;;;;5061543;28;20480;-85
2023/02/17 10:17:26;;;;;;;5.70;2.90;;;14.60;99.90;;;;;;5061758;28;20478;-84
2023/02/17 10:20:06;;;;;;;9.23;3.40;;;14.60;99.90;;;;;;5061704;28;20544;-85
2023/02/17 10:22:38;;;;;;;6.67;3.80;;;14.90;99.90;;;;;;5059341;28;21018;-83
2023/02/17 10:25:17;;;;;;;6.90;4.10;;;14.80;99.90;;;;;;5059624;28;20464;-85
2023/02/17 10:27:48;;;;;;;7.03;2.90;;;14.90;99.90;;;;;;5060487;28;20457;-84
2023/02/17 10:30:26;;;;;;;6.73;3.30;;;15.10;99.90;;;;;;5061475;28;20472;-85
2023/02/17 10:33:13;;;;;;;6.17;3.17;;;15.20;99.90;;;;;;5061245;28;20474;-84
2023/02/17 10:35:50;;;;;;;8.67;3.87;;;15.60;99.90;;;;;;5060893;28;20450;-84
2023/02/17 10:38:22;;;;;;;7.70;3.03;;;15.80;99.90;;;;;;5060810;28;20538;-85
2023/02/17 10:40:51;;;;;;;7.30;3.37;;;15.70;99.90;;;;;;5059821;28;20452;-85
2023/02/17 10:43:24;;;;;;;6.33;3.10;;;15.60;99.90;;;;;;5060374;28;20486;-85
2023/02/17 10:45:52;;;;;;;10.20;3.77;;;15.50;99.90;;;;;;5063336;28;20789;-85
2023/02/17 10:48:23;;;;;;;6.50;2.83;;;15.40;99.90;;;;;;5064055;28;20465;-85
2023/02/17 10:50:50;;;;;;;7.00;2.90;;;15.40;99.90;;;;;;5064550;28;20458;-83
2023/02/17 10:53:20;;;;;;;6.30;2.77;;;15.30;99.90;;;;;;5061852;28;20475;-84
2023/02/17 10:55:54;;;;;;;6.50;2.90;;;15.20;99.90;;;;;;5063076;28;20462;-84
2023/02/17 10:58:27;;;;;;;5.73;2.80;;;15.20;99.90;;;;;;5063153;28;20455;-85
2023/02/17 11:00:56;;;;;;;9.40;4.17;;;15.10;99.90;;;;;;5063296;28;20464;-84
2023/02/17 11:03:26;;;;;;;8.50;3.43;;;14.90;99.90;;;;;;5062422;28;20481;-85
2023/02/17 11:05:55;;;;;;;6.20;2.73;;;14.80;99.90;;;;;;5062822;28;20458;-84
2023/02/17 11:08:30;;;;;;;5.10;2.60;;;14.80;99.90;;;;;;5062446;28;20539;-84
2023/02/17 11:11:02;;;;;;;6.27;3.13;;;14.80;99.90;;;;;;5071921;28;20448;-85
2023/02/17 11:13:34;;;;;;;8.27;3.07;;;14.90;99.90;;;;;;5082266;28;20546;-84
2023/02/17 11:16:01;;;;;;;7.13;3.00;;;14.90;99.90;;;;;;5083734;28;20452;-83
2023/02/17 11:18:33;;;;;;;6.17;2.67;;;15.10;99.90;;;;;;5084136;28;20456;-84
2023/02/17 11:21:01;;;;;;;7.17;3.07;;;15.00;99.90;;;;;;5082595;28;20452;-84
2023/02/17 11:23:28;;;;;;;10.13;3.27;;;15.20;99.90;;;;;;5083290;28;20995;-84
2023/02/17 11:26:00;;;;;;;6.23;3.13;;;15.10;99.90;;;;;;5082786;28;20472;-84
2023/02/17 11:28:28;;;;;;;8.30;3.60;;;15.00;99.90;;;;;;5083931;28;20450;-84
2023/02/17 11:30:56;;;;;;;6.13;2.90;;;15.10;99.90;;;;;;5083751;28;20460;-85
2023/02/17 11:33:37;;;;;;;7.27;2.60;;;15.30;99.90;;;;;;5083390;28;20475;-84
2023/02/17 11:36:05;;;;;;;8.20;3.40;;;15.40;99.90;;;;;;5083463;28;20455;-85
2023/02/17 11:38:43;;;;;;;6.73;2.30;;;15.60;99.90;;;;;;5082458;28;20449;-85
2023/02/17 11:41:10;;;;;;;5.90;2.30;;;15.60;99.90;;;;;;5083085;28;20453;-84
2023/02/17 11:43:37;;;;;;;8.70;2.43;;;15.60;99.90;;;;;;5082884;28;20975;-84
2023/02/17 11:46:27;;;;;;;8.10;3.00;;;15.60;99.90;;;;;;5083288;28;20457;-84
2023/02/17 11:49:18;;;;;;;7.83;2.00;;;15.70;99.90;;;;;;5082727;28;20857;-85
2023/02/17 11:51:55;;;;;;;7.13;2.43;;;15.90;99.90;;;;;;5083242;28;20532;-84
2023/02/17 11:54:28;;;;;;;5.60;2.50;;;15.80;99.90;;;;;;5082123;28;20477;-84
2023/02/17 11:57:02;;;;;;;6.10;2.40;;;15.70;99.90;;;;;;5082018;28;20454;-85
2023/02/17 11:59:43;;;;;;;5.00;1.90;;;15.80;99.90;;;;;;5083042;28;20466;-84
2023/02/17 12:02:23;;;;;;;6.13;2.27;;;15.90;99.90;;;;;;5082467;28;20482;-84
2023/02/17 12:05:03;;;;;;;5.90;2.33;;;15.90;99.90;;;;;;5082334;28;20450;-84
2023/02/17 12:07:59;;;;;;;5.40;2.43;;;16.00;99.90;;;;;;5083042;28;20462;-85
2023/02/17 12:10:38;;;;;;;12.70;3.10;;;15.90;99.90;;;;;;5082599;28;20452;-84
2023/02/17 12:13:18;;;;;;;6.60;2.80;;;15.90;99.90;;;;;;5082305;28;20840;-85
2023/02/17 12:16:00;;;;;;;5.10;2.53;;;15.80;99.90;;;;;;5082265;28;20475;-85
2023/02/17 12:18:41;;;;;;;5.60;2.57;;;15.50;99.90;;;;;;5082127;28;20457;-85
2023/02/17 12:21:19;;;;;;;9.83;2.90;;;15.50;99.90;;;;;;5082125;28;20460;-84
2023/02/17 12:24:03;;;;;;;7.03;2.43;;;15.40;99.90;;;;;;5081331;28;20484;-84
2023/02/17 12:26:39;;;;;;;6.50;2.63;;;15.50;99.90;;;;;;5081281;28;20636;-84
2023/02/17 12:29:30;;;;;;;6.83;2.53;;;15.60;99.90;;;;;;5081975;28;20453;-84
2023/02/17 12:32:09;;;;;;;7.43;2.77;;;15.40;99.90;;;;;;5082094;28;20832;-84
2023/02/17 12:34:40;;;;;;;5.70;2.30;;;15.40;99.90;;;;;;5081775;28;20489;-84
2023/02/17 12:37:17;;;;;;;5.50;2.60;;;15.40;99.90;;;;;;5082375;28;20450;-84
2023/02/17 12:39:49;;;;;;;6.43;2.80;;;15.50;99.90;;;;;;5081267;28;20452;-84
2023/02/17 12:42:20;;;;;;;5.77;2.67;;;15.90;99.90;;;;;;5080994;28;20470;-84
2023/02/17 12:44:51;;;;;;;6.60;2.40;;;16.80;99.90;;;;;;5081591;28;20454;-84
2023/02/17 12:47:24;;;;;;;8.50;3.57;;;16.80;99.90;;;;;;5082190;28;20456;-85
2023/02/17 12:49:57;;;;;;;6.77;2.90;;;16.70;99.90;;;;;;5082151;28;20455;-86
2023/02/17 12:52:28;;;;;;;6.10;2.63;;;16.60;99.90;;;;;;5080678;28;20985;-84
2023/02/17 12:54:58;;;;;;;6.33;3.00;;;16.40;99.90;;;;;;5081023;28;20480;-85